Latest Weather Observations for Cape Naturaliste

IDW60801

Issued at 9:35 pm WST Sunday 20 April 2014 (issued every 30 minutes, with the page automatically refreshed every 10 minutes)

About weather observations | Map of weather stations | Latest weather observations for WA | Other Formats
Station Details ID: 009519 Name: CAPE NATURALISTE Lat: -33.54 Lon: 115.02 Height: 109.0 m
Data from the previous 72 hours. | See also: Recent months at Cape Naturaliste
Date/Time
WST
Temp
°C
App
Temp
°C
Dew
Point
Rel
Hum
%
Delta-T
°C
Wind Press
QNH
hPa
Press
MSL
hPa
Rain
since 9 am
mm
Dir
 
Spd
km/h
Gust
km/h
Spd
kts
Gust
kts
20/09:30pm 13.3 9.5 7.7 69 2.8 SSE 17 20 9 11 1016.7 - 0.0
20/09:00pm 13.6 9.5 8.0 69 2.8 SSE 19 24 10 13 1016.5 1016.2 0.0
20/08:30pm 14.0 10.0 8.2 68 2.9 S 19 24 10 13 1016.4 - 0.0
20/08:00pm 14.6 10.2 8.8 68 3.0 S 22 28 12 15 1016.3 - 0.0
20/07:30pm 15.0 10.6 8.9 67 3.1 S 22 30 12 16 1016.1 - 0.0
20/07:00pm 15.7 11.8 9.4 66 3.3 S 20 26 11 14 1015.9 - 0.0
20/06:30pm 16.0 12.1 9.4 65 3.4 S 20 28 11 15 1015.8 - 0.0
20/06:00pm 16.3 12.4 9.5 64 3.6 S 20 28 11 15 1015.5 1015.2 0.0
20/05:30pm 16.7 12.1 9.6 63 3.7 S 24 30 13 16 1015.3 - 0.0
20/05:00pm 17.2 12.7 10.1 63 3.8 S 24 32 13 17 1015.2 - 0.0
20/04:30pm 17.8 13.4 10.4 62 4.0 S 24 32 13 17 1015.1 - 0.0
20/04:00pm 18.3 12.8 10.7 61 4.1 S 30 39 16 21 1014.9 - 0.0
20/03:30pm 18.4 13.4 11.0 62 4.0 SSW 28 41 15 22 1014.8 - 0.0
20/03:00pm 18.5 12.8 11.3 63 3.9 S 32 39 17 21 1014.5 1014.2 0.0
20/02:30pm 19.7 14.1 12.2 62 4.2 SSW 33 43 18 23 1014.3 - 0.0
20/02:06pm 19.5 14.2 13.2 67 3.6 SSW 33 52 18 28 1014.3 - 0.0
20/02:00pm 18.9 13.0 12.4 66 3.6 SSW 35 52 19 28 1014.3 - 0.0
20/01:30pm 18.9 13.6 12.4 66 3.6 S 32 39 17 21 1014.4 - 0.0
20/01:00pm 19.5 15.6 13.2 67 3.6 SSW 26 33 14 18 1014.7 - 0.0
20/12:30pm 18.5 14.9 11.8 65 3.7 SSW 22 32 12 17 1015.1 - 0.0
20/12:00pm 20.0 16.9 10.4 54 5.2 NE 17 24 9 13 1015.6 1015.3 0.0
20/11:30am 18.7 16.5 10.8 60 4.3 E 13 19 7 10 1015.7 - 0.0
20/11:00am 19.5 16.2 11.0 58 4.7 E 19 22 10 12 1015.7 - 0.0
20/10:30am 18.8 17.3 10.6 59 4.4 SE 9 17 5 9 1016.3 - 0.0
20/10:00am 19.8 18.4 12.3 62 4.2 SSE 11 17 6 9 1016.5 - 0.0
20/09:30am 16.7 14.7 11.4 71 2.9 SSE 13 17 7 9 1016.8 - 0.0
20/09:00am 16.3 14.2 11.2 72 2.8 SE 13 17 7 9 1016.7 1016.4 0.0
20/08:30am 15.3 13.2 11.1 76 2.3 S 13 17 7 9 1016.5 - 0.0
20/08:00am 14.1 11.4 10.5 79 1.9 SE 15 20 8 11 1016.2 - 0.0
20/07:30am 13.5 10.4 10.3 81 1.7 SE 17 20 9 11 1016.1 - 0.0
20/07:00am 13.0 9.8 10.0 82 1.5 SE 17 20 9 11 1015.9 - 0.0
20/06:30am 12.9 9.7 9.9 82 1.5 SE 17 20 9 11 1015.8 - 0.0
20/06:00am 12.9 9.7 10.1 83 1.4 SE 17 20 9 11 1015.9 1015.6 0.0
20/05:30am 13.1 9.9 10.1 82 1.6 ESE 17 19 9 10 1015.9 - 0.0
20/05:00am 13.2 9.7 10.2 82 1.6 ESE 19 20 10 11 1015.7 - 0.0
20/04:30am 13.1 9.9 9.9 81 1.7 ESE 17 19 9 10 1015.7 - 0.0
20/04:00am 13.8 10.7 10.4 80 1.8 ESE 17 19 9 10 1015.8 - 0.0
20/03:30am 13.7 10.5 10.1 79 1.9 ESE 17 19 9 10 1015.7 - 0.0
20/03:00am 14.1 11.5 10.7 80 1.8 ESE 15 19 8 10 1015.8 1015.5 0.0
20/02:30am 13.8 11.2 10.8 82 1.6 ESE 15 19 8 10 1016.1 - 0.0
20/02:00am 13.1 10.3 10.1 82 1.6 SE 15 17 8 9 1016.4 - 0.0
20/01:30am 13.0 10.2 10.0 82 1.6 SE 15 17 8 9 1016.4 - 0.0
20/01:00am 13.6 10.9 10.4 81 1.7 SE 15 17 8 9 1016.5 - 0.0
20/12:30am 14.0 11.4 10.8 81 1.7 SE 15 20 8 11 1016.5 - 0.0
20/12:00am 13.9 11.3 10.7 81 1.7 SE 15 19 8 10 1016.3 1016.0 0.0
 
Date/Time
WST
Temp
°C
App
Temp
°C
Dew
Point
Rel
Hum
%
Delta-T
°C
Wind Press
QNH
hPa
Press
MSL
hPa
Rain
since 9 am
mm
Dir
 
Spd
km/h
Gust
km/h
Spd
kts
Gust
kts
19/11:30pm 14.0 11.7 10.6 80 1.8 SSE 13 17 7 9 1016.6 - 0.0
19/11:00pm 14.5 11.6 11.1 80 1.8 SE 17 22 9 12 1016.8 - 0.0
19/10:30pm 15.1 12.0 11.5 79 1.9 SSE 19 26 10 14 1017.2 - 0.0
19/10:00pm 15.1 11.4 11.5 79 1.9 SSE 22 32 12 17 1017.1 - 0.0
19/09:30pm 15.3 11.2 11.3 77 2.2 SSE 24 33 13 18 1017.1 - 0.0
19/09:00pm 15.4 11.6 11.2 76 2.3 SSE 22 30 12 16 1017.0 1016.7 0.0
19/08:30pm 15.6 11.4 11.0 74 2.5 S 24 32 13 17 1017.1 - 0.0
19/08:00pm 15.8 11.1 10.8 72 2.7 S 26 33 14 18 1016.9 - 0.0
19/07:30pm 15.7 11.3 10.5 71 2.8 S 24 32 13 17 1017.1 - 0.0
19/07:00pm 16.1 11.4 10.6 70 2.9 S 26 33 14 18 1017.1 - 0.0
19/06:30pm 16.3 11.5 10.4 68 3.1 S 26 35 14 19 1016.7 - 0.0
19/06:00pm 17.1 12.8 10.7 66 3.4 S 24 32 13 17 1016.5 1016.2 0.0
19/05:30pm 17.9 13.0 11.2 65 3.7 S 28 35 15 19 1016.3 - 0.0
19/05:00pm 18.4 12.9 11.7 65 3.7 SSW 32 43 17 23 1016.2 - 0.0
19/04:30pm 18.7 12.7 12.0 65 3.7 SSW 35 48 19 26 1016.0 - 0.0
19/04:00pm 19.9 14.0 12.4 62 4.2 SSW 35 44 19 24 1016.0 - 0.0
19/03:30pm 20.3 14.8 12.5 61 4.4 SSW 33 46 18 25 1016.1 - 0.0
19/03:00pm 20.4 14.7 11.9 58 4.8 SSW 33 44 18 24 1016.3 1016.0 0.0
19/02:30pm 20.8 15.2 12.0 57 4.9 SSW 33 46 18 25 1016.4 - 0.0
19/02:00pm 19.8 13.9 11.0 57 4.8 SSW 33 41 18 22 1016.4 - 0.0
19/01:30pm 21.6 16.1 11.9 54 5.5 SSW 32 41 17 22 1016.6 - 0.0
19/01:00pm 20.8 15.3 12.0 57 4.9 SSW 32 41 17 22 1017.0 - 0.0
19/12:30pm 20.2 15.6 12.2 60 4.5 SSW 28 39 15 21 1017.6 - 0.0
19/12:00pm 21.0 17.1 13.2 61 4.5 SSW 26 39 14 21 1018.0 1017.8 0.0
19/11:30am 19.1 15.9 11.9 63 4.0 SSW 20 32 11 17 1018.5 - 0.0
19/11:00am 18.8 16.2 12.1 65 3.7 SSW 17 24 9 13 1018.9 - 0.0
19/10:30am 20.1 18.0 12.3 61 4.4 SSE 15 24 8 13 1019.1 - 0.0
19/10:00am 19.1 16.5 12.1 64 3.9 SSE 17 24 9 13 1019.5 - 0.0
19/09:30am 18.7 17.1 12.7 68 3.4 SSE 13 20 7 11 1019.7 - 0.0
19/09:00am 17.8 15.4 12.5 71 3.0 SSE 17 20 9 11 1019.8 1019.5 0.0
19/08:30am 17.6 15.3 12.9 74 2.6 SSE 17 20 9 11 1019.9 - 0.0
19/08:00am 16.3 14.3 12.8 80 1.9 SSE 15 19 8 10 1019.8 - 0.0
19/07:30am 15.5 13.1 12.6 83 1.6 SSE 17 20 9 11 1019.5 - 0.0
19/07:00am 14.8 12.6 12.1 84 1.5 SSE 15 17 8 9 1019.2 - 0.0
19/06:30am 14.5 11.9 12.0 85 1.4 SSE 17 20 9 11 1019.0 - 0.0
19/06:00am 13.9 11.1 11.4 85 1.3 SSE 17 20 9 11 1019.0 1018.8 0.0
19/05:30am 14.1 11.4 11.8 86 1.2 SSE 17 20 9 11 1019.0 - 0.0
19/05:00am 13.7 10.9 11.2 85 1.3 SSE 17 20 9 11 1018.6 - 0.0
19/04:30am 13.9 11.1 11.4 85 1.3 SSE 17 20 9 11 1018.7 - 0.0
19/04:00am 14.0 10.9 11.5 85 1.3 SSE 19 20 10 11 1018.6 - 0.0
19/03:30am 14.0 10.9 11.5 85 1.3 SSE 19 22 10 12 1018.7 - 0.0
19/03:00am 14.0 10.9 11.5 85 1.3 SSE 19 20 10 11 1018.6 1018.4 0.0
19/02:30am 13.9 10.7 11.2 84 1.4 SSE 19 22 10 12 1018.7 - 0.0
19/02:00am 14.0 10.7 11.0 82 1.6 SSE 19 20 10 11 1019.0 - 0.0
19/01:30am 14.5 11.3 11.3 81 1.7 SSE 19 24 10 13 1019.2 - 0.0
19/01:00am 15.0 11.8 11.2 78 2.0 SSE 19 26 10 14 1019.5 - 0.0
19/12:30am 15.5 12.2 11.5 77 2.2 S 20 28 11 15 1019.6 - 0.0
19/12:00am 15.4 12.7 11.6 78 2.1 S 17 26 9 14 1019.9 1019.6 0.0
 
Date/Time
WST
Temp
°C
App
Temp
°C
Dew
Point
Rel
Hum
%
Delta-T
°C
Wind Press
QNH
hPa
Press
MSL
hPa
Rain
since 9 am
mm
Dir
 
Spd
km/h
Gust
km/h
Spd
kts
Gust
kts
18/11:30pm 15.4 12.6 11.2 76 2.3 S 17 24 9 13 1019.8 - 0.0
18/11:00pm 15.7 12.5 11.3 75 2.4 S 19 30 10 16 1020.1 - 0.0
18/10:30pm 16.0 11.4 11.0 72 2.7 S 26 33 14 18 1020.1 - 0.0
18/10:00pm 16.4 11.3 11.8 74 2.5 S 30 37 16 20 1020.2 - 0.0
18/09:30pm 16.6 10.7 11.3 71 2.9 S 33 43 18 23 1020.3 - 0.0
18/09:00pm 16.6 10.7 11.3 71 2.9 S 33 43 18 23 1020.3 1020.0 0.0
18/08:30pm 16.6 10.7 11.3 71 2.9 S 33 41 18 22 1020.2 - 0.0
18/08:00pm 16.7 11.4 11.4 71 2.9 S 30 37 16 20 1020.1 - 0.0
18/07:30pm 17.0 12.6 11.7 71 2.9 SSW 26 35 14 19 1020.2 - 0.0
18/07:00pm 17.5 13.5 11.8 69 3.1 SSW 24 32 13 17 1020.1 - 0.0
18/06:30pm 17.5 14.3 12.0 70 3.0 SSW 20 30 11 16 1019.9 - 0.0
18/06:00pm 17.8 14.2 11.8 68 3.3 SSW 22 32 12 17 1019.8 1019.5 0.0
18/05:30pm 18.7 15.2 12.2 66 3.6 SSW 22 30 12 16 1019.6 - 0.0
18/05:00pm 19.2 16.2 12.7 66 3.7 SSW 20 28 11 15 1019.6 - 0.0
18/04:30pm 20.3 17.3 12.5 61 4.4 SSW 20 28 11 15 1019.7 - 0.0
18/04:00pm 20.9 18.2 12.8 60 4.6 SW 19 24 10 13 1019.7 - 0.0
18/03:30pm 21.3 18.4 12.4 57 5.0 SW 19 26 10 14 1019.8 - 0.0
18/03:00pm 22.3 19.6 12.8 55 5.4 SW 19 24 10 13 1020.0 1019.7 0.0
18/02:30pm 22.1 19.9 13.2 57 5.1 WSW 17 22 9 12 1020.0 - 0.0
18/02:00pm 22.2 20.4 12.2 53 5.7 WSW 13 19 7 10 1020.2 - 0.0
18/01:30pm 22.0 20.8 11.7 52 5.8 NNW 9 13 5 7 1020.4 - 0.0
18/01:00pm 22.5 22.0 13.8 58 5.1 NNE 9 15 5 8 1020.9 - 0.0
18/12:30pm 21.8 21.7 13.9 61 4.6 NNE 7 13 4 7 1021.4 - 0.0
18/12:00pm 20.3 18.9 13.3 64 4.0 ENE 13 17 7 9 1021.6 1021.3 0.0
18/11:30am 20.4 18.2 13.4 64 4.0 ENE 17 20 9 11 1021.8 - 0.0
18/11:00am 20.5 18.5 13.9 66 3.8 ENE 17 22 9 12 1022.2 - 0.0
18/10:30am 20.1 17.7 13.8 67 3.6 ENE 19 24 10 13 1022.5 - 0.0
18/10:00am 19.6 16.9 13.5 68 3.5 ENE 20 26 11 14 1022.5 - 0.0
18/09:30am 19.1 16.4 13.5 70 3.2 ENE 20 30 11 16 1022.9 - 0.0
18/09:00am 18.1 15.6 14.2 78 2.2 E 20 26 11 14 1023.1 1022.8 0.2
18/08:30am 17.0 14.8 14.3 84 1.6 E 19 22 10 12 1023.2 - 0.2
18/08:00am 15.5 13.4 13.5 88 1.1 ESE 17 22 9 12 1023.2 - 0.2
18/07:30am 13.6 10.6 11.8 89 1.0 ESE 19 20 10 11 1023.0 - 0.2
18/07:00am 12.7 9.4 10.9 89 0.9 ESE 19 22 10 12 1022.9 - 0.2
18/06:30am 12.4 9.0 10.6 89 0.9 ESE 19 22 10 12 1022.8 - 0.2
18/06:00am 12.5 9.1 10.7 89 0.9 SE 19 22 10 12 1023.0 1022.7 0.2
18/05:30am 12.4 9.0 10.5 88 1.0 ESE 19 20 10 11 1023.1 - 0.2
18/05:00am 12.5 9.1 10.6 88 1.0 ESE 19 22 10 12 1023.1 - 0.2
18/04:30am 13.0 9.8 11.1 88 1.0 ESE 19 24 10 13 1023.1 - 0.2
18/04:00am 13.2 9.8 11.3 88 1.0 ESE 20 28 11 15 1023.1 - 0.2
18/03:30am 12.8 9.3 10.9 88 1.0 ESE 20 24 11 13 1023.1 - 0.2
18/03:00am 12.7 9.3 10.6 87 1.1 ESE 19 22 10 12 1023.2 1022.9 0.2
18/02:30am 12.6 9.1 10.3 86 1.2 ESE 19 20 10 11 1023.3 - 0.2
18/02:00am 12.8 9.4 10.5 86 1.2 SE 19 22 10 12 1023.4 - 0.2
18/01:30am 13.1 9.5 10.6 85 1.3 SE 20 24 11 13 1023.3 - 0.2
18/01:00am 13.5 10.0 10.9 84 1.4 SE 20 26 11 14 1023.5 - 0.2
18/12:30am 13.7 10.2 11.0 84 1.4 SE 20 24 11 13 1023.4 - 0.2
18/12:00am 14.0 10.5 11.0 82 1.6 SE 20 26 11 14 1023.5 1023.2 0.2
 
Date/Time
WST
Temp
°C
App
Temp
°C
Dew
Point
Rel
Hum
%
Delta-T
°C
Wind Press
QNH
hPa
Press
MSL
hPa
Rain
since 9 am
mm
Dir
 
Spd
km/h
Gust
km/h
Spd
kts
Gust
kts
17/11:30pm 14.4 11.0 11.2 81 1.7 SSE 20 26 11 14 1023.6 - 0.2
17/11:00pm 14.7 11.3 11.3 80 1.8 SSE 20 28 11 15 1023.8 - 0.2
17/10:30pm 14.8 11.4 11.2 79 1.9 SSE 20 28 11 15 1023.9 - 0.2
17/10:00pm 14.9 11.5 11.3 79 1.9 SSE 20 28 11 15 1024.0 - 0.2

Other Formats:

Comma delimited format used in spreadsheet applications
http://www.bom.gov.au/fwo/IDW60801/IDW60801.94600.axf

JavaScript Object Notation format (JSON) in row-major order
http://www.bom.gov.au/fwo/IDW60801/IDW60801.94600.json